createdAt,value
2022-09-12T00:01:51.064Z,21.83
2022-09-12T00:04:17.964Z,22.67
2022-09-12T00:06:45.158Z,20.87
2022-09-12T00:09:14.379Z,20.53
2022-09-12T00:11:43.458Z,23.10
2022-09-12T00:14:12.583Z,21.63
2022-09-12T00:16:39.462Z,22.00
2022-09-12T00:19:10.175Z,24.20
2022-09-12T00:21:39.473Z,23.13
2022-09-12T00:24:07.262Z,22.30
2022-09-12T00:26:34.001Z,22.23
2022-09-12T00:29:00.878Z,22.70
2022-09-12T00:31:28.093Z,21.90
2022-09-12T00:33:56.969Z,20.40
2022-09-12T00:36:25.683Z,22.40
2022-09-12T00:38:53.459Z,22.70
2022-09-12T00:41:26.669Z,23.70
2022-09-12T00:43:56.680Z,22.07
2022-09-12T00:46:33.106Z,21.90
2022-09-12T00:49:11.558Z,20.07
2022-09-12T00:51:39.556Z,21.30
2022-09-12T00:54:13.141Z,19.73
2022-09-12T00:56:43.838Z,22.10
2022-09-12T00:59:39.811Z,21.40
2022-09-12T01:02:07.389Z,20.10
2022-09-12T01:04:37.007Z,20.23
2022-09-12T01:07:04.789Z,20.30
2022-09-12T01:09:31.898Z,21.50
2022-09-12T01:11:59.130Z,21.07
2022-09-12T01:14:25.925Z,20.40
2022-09-12T01:16:52.881Z,20.57
2022-09-12T01:19:49.419Z,19.93
2022-09-12T01:22:46.453Z,20.00
2022-09-12T01:25:22.019Z,21.60
2022-09-12T01:28:16.317Z,21.00
2022-09-12T01:30:49.577Z,21.30
2022-09-12T01:33:27.494Z,20.27
2022-09-12T01:36:20.010Z,20.47
2022-09-12T01:39:12.579Z,19.67
2022-09-12T01:42:00.637Z,20.60
2022-09-12T01:44:35.317Z,21.57
2022-09-12T01:47:14.059Z,21.63
2022-09-12T01:49:57.914Z,20.60
2022-09-12T01:52:32.276Z,21.23
2022-09-12T01:55:11.420Z,22.10
2022-09-12T01:57:46.060Z,20.70
2022-09-12T02:00:13.759Z,21.07
2022-09-12T02:03:03.224Z,19.27
2022-09-12T02:05:34.736Z,19.93
2022-09-12T02:08:04.253Z,19.93
2022-09-12T02:10:34.845Z,19.73
2022-09-12T02:13:17.366Z,19.73
2022-09-12T02:15:49.402Z,20.00
2022-09-12T02:18:18.539Z,21.10
2022-09-12T02:20:48.944Z,20.07
2022-09-12T02:23:24.018Z,20.60
2022-09-12T02:25:56.259Z,20.03
2022-09-12T02:28:31.024Z,18.07
2022-09-12T02:31:30.006Z,19.97
2022-09-12T02:34:22.351Z,19.40
2022-09-12T02:37:15.436Z,19.50
2022-09-12T02:39:45.123Z,20.07
2022-09-12T02:42:13.422Z,20.37
2022-09-12T02:44:40.775Z,20.00
2022-09-12T02:47:17.017Z,19.33
2022-09-12T02:49:44.155Z,18.47
2022-09-12T02:52:13.275Z,18.50
2022-09-12T02:54:40.190Z,17.30
2022-09-12T02:57:22.815Z,17.90
2022-09-12T02:59:52.381Z,18.23
2022-09-12T03:02:44.099Z,17.90
2022-09-12T03:05:21.731Z,17.13
2022-09-12T03:08:07.133Z,17.47
2022-09-12T03:10:36.925Z,16.43
2022-09-12T03:13:28.903Z,17.47
2022-09-12T03:16:12.237Z,16.40
2022-09-12T03:18:50.202Z,17.47
2022-09-12T03:21:16.802Z,17.63
2022-09-12T03:23:59.874Z,15.67
2022-09-12T03:26:34.950Z,16.17
2022-09-12T03:29:04.032Z,15.67
2022-09-12T03:31:31.694Z,15.93
2022-09-12T03:34:00.127Z,15.63
2022-09-12T03:36:29.255Z,16.80
2022-09-12T03:38:56.552Z,16.60
2022-09-12T03:41:23.222Z,17.10
2022-09-12T03:43:49.923Z,16.83
2022-09-12T03:46:16.635Z,17.37
2022-09-12T03:48:43.299Z,17.13
2022-09-12T03:51:10.778Z,16.93
2022-09-12T03:53:37.613Z,15.43
2022-09-12T03:56:12.349Z,15.63
2022-09-12T03:58:39.452Z,17.87
2022-09-12T04:01:12.601Z,15.23
2022-09-12T04:03:44.266Z,15.10
2022-09-12T04:06:13.865Z,17.40
2022-09-12T04:08:41.311Z,15.57
2022-09-12T04:11:14.160Z,15.77
2022-09-12T04:13:42.558Z,15.70
2022-09-12T04:16:10.304Z,15.77
2022-09-12T04:18:37.663Z,15.87
2022-09-12T04:21:06.200Z,16.00
2022-09-12T04:23:33.027Z,15.43
2022-09-12T04:26:01.574Z,15.27
2022-09-12T04:28:32.550Z,16.30
2022-09-12T04:31:04.937Z,16.00
2022-09-12T04:33:31.857Z,16.30
2022-09-12T04:36:07.593Z,17.30
2022-09-12T04:38:35.731Z,16.70
2022-09-12T04:41:11.126Z,16.10
2022-09-12T04:43:37.823Z,17.30
2022-09-12T04:46:09.177Z,17.33
2022-09-12T04:48:36.552Z,18.00
2022-09-12T04:51:18.333Z,17.00
2022-09-12T04:53:49.769Z,14.83
2022-09-12T04:56:16.863Z,15.10
2022-09-12T04:58:43.661Z,15.80
2022-09-12T05:01:12.984Z,16.13
2022-09-12T05:03:43.155Z,15.30
2022-09-12T05:06:12.454Z,14.70
2022-09-12T05:08:39.161Z,15.13
2022-09-12T05:11:08.057Z,14.77
2022-09-12T05:13:35.134Z,14.73
2022-09-12T05:16:03.745Z,14.80
2022-09-12T05:18:32.575Z,14.90
2022-09-12T05:21:00.738Z,14.23
2022-09-12T05:23:28.731Z,14.27
2022-09-12T05:25:57.944Z,12.47
2022-09-12T05:28:28.555Z,15.13
2022-09-12T05:31:11.363Z,13.93
2022-09-12T05:33:39.595Z,15.57
2022-09-12T05:36:09.351Z,14.47
2022-09-12T05:38:36.354Z,14.73
2022-09-12T05:41:17.705Z,15.93
2022-09-12T05:43:47.586Z,14.10
2022-09-12T05:46:19.550Z,13.30
2022-09-12T05:48:47.765Z,13.17
2022-09-12T05:51:20.989Z,14.83
2022-09-12T05:53:52.742Z,14.07
2022-09-12T05:56:25.323Z,13.17
2022-09-12T05:58:56.433Z,14.43
2022-09-12T06:01:23.386Z,13.13
2022-09-12T06:03:52.822Z,13.93
2022-09-12T06:06:21.604Z,13.90
2022-09-12T06:08:50.506Z,14.37
2022-09-12T06:11:20.818Z,13.30
2022-09-12T06:13:47.911Z,13.47
2022-09-12T06:16:16.834Z,13.63
2022-09-12T06:18:57.752Z,13.83
2022-09-12T06:21:26.562Z,14.40
2022-09-12T06:23:56.119Z,13.93
2022-09-12T06:26:25.608Z,15.13
2022-09-12T06:28:54.566Z,14.10
2022-09-12T06:31:27.871Z,14.67
2022-09-12T06:33:56.083Z,13.83
2022-09-12T06:36:26.041Z,14.23
2022-09-12T06:38:57.851Z,13.60
2022-09-12T06:41:25.521Z,13.30
2022-09-12T06:43:53.197Z,11.17
2022-09-12T06:46:20.481Z,13.47
2022-09-12T06:48:47.366Z,12.47
2022-09-12T06:51:16.128Z,12.50
2022-09-12T06:53:44.515Z,13.50
2022-09-12T06:56:15.267Z,13.10
2022-09-12T06:58:43.146Z,12.47
2022-09-12T07:01:13.279Z,13.20
2022-09-12T07:03:40.978Z,12.63
2022-09-12T07:06:10.948Z,13.40
2022-09-12T07:08:39.202Z,11.90
2022-09-12T07:11:10.378Z,13.10
2022-09-12T07:13:37.690Z,12.57
2022-09-12T07:16:05.574Z,13.07
2022-09-12T07:18:35.804Z,12.40
2022-09-12T07:21:03.733Z,12.60
2022-09-12T07:23:30.674Z,12.43
2022-09-12T07:26:00.131Z,12.70
2022-09-12T07:28:32.239Z,13.20
2022-09-12T07:31:05.195Z,12.90
2022-09-12T07:33:31.920Z,12.40
2022-09-12T07:36:06.995Z,13.37
2022-09-12T07:38:33.673Z,14.13
2022-09-12T07:41:01.672Z,13.53
2022-09-12T07:43:28.403Z,14.07
2022-09-12T07:45:58.247Z,12.57
2022-09-12T07:48:25.117Z,12.50
2022-09-12T07:51:02.238Z,15.10
2022-09-12T07:53:36.992Z,13.03
2022-09-12T07:56:05.493Z,14.60
2022-09-12T07:58:34.456Z,12.57
2022-09-12T08:01:19.337Z,12.40
2022-09-12T08:03:48.540Z,40.33
2022-09-12T08:06:30.255Z,12.20
2022-09-12T08:08:58.185Z,13.13
2022-09-12T08:11:28.049Z,17.13
2022-09-12T08:13:57.186Z,11.60
2022-09-12T08:16:29.546Z,16.83
2022-09-12T08:18:56.849Z,14.70
2022-09-12T08:21:26.156Z,10.83
2022-09-12T08:24:01.610Z,14.90
2022-09-12T08:26:28.985Z,12.60
2022-09-12T08:28:55.835Z,13.70
2022-09-12T08:31:24.513Z,11.80
2022-09-12T08:33:51.753Z,12.23
2022-09-12T08:36:24.285Z,11.50
2022-09-12T08:38:59.283Z,12.10
2022-09-12T08:41:41.281Z,27.03
2022-09-12T08:44:32.370Z,11.60
2022-09-12T08:47:27.403Z,12.00
2022-09-12T08:50:12.223Z,10.83
2022-09-12T08:52:53.670Z,11.27
2022-09-12T08:55:31.470Z,11.00
2022-09-12T08:58:00.755Z,10.37
2022-09-12T09:00:38.543Z,9.93
2022-09-12T09:03:26.859Z,10.90
2022-09-12T09:06:08.249Z,9.97
2022-09-12T09:08:43.583Z,24.67
2022-09-12T09:11:10.200Z,17.23
2022-09-12T09:14:07.853Z,10.27
2022-09-12T09:16:41.214Z,9.90
2022-09-12T09:19:37.536Z,9.80
2022-09-12T09:22:28.969Z,13.43
2022-09-12T09:25:01.378Z,10.03
2022-09-12T09:27:46.901Z,9.43
2022-09-12T09:30:16.894Z,11.63
2022-09-12T09:32:47.728Z,10.33
2022-09-12T09:35:24.912Z,9.07
2022-09-12T09:38:06.312Z,7.93
2022-09-12T09:40:59.935Z,9.17
2022-09-12T09:43:29.811Z,8.60
2022-09-12T09:45:58.329Z,9.90
2022-09-12T09:48:32.350Z,10.90
2022-09-12T09:51:02.098Z,9.53
2022-09-12T09:53:41.403Z,14.73
2022-09-12T09:56:31.517Z,43.60
2022-09-12T09:59:27.700Z,6.50
2022-09-12T10:02:03.663Z,7.60
2022-09-12T10:04:40.697Z,9.57
2022-09-12T10:07:18.806Z,7.00
2022-09-12T10:10:23.788Z,31.30
2022-09-12T10:12:51.292Z,7.10
2022-09-12T10:15:22.678Z,18.53
2022-09-12T10:17:51.079Z,12.90
2022-09-12T10:20:40.183Z,7.10
2022-09-12T10:23:37.720Z,13.90
2022-09-12T10:26:10.683Z,6.87
2022-09-12T10:28:43.442Z,25.97
2022-09-12T10:31:15.556Z,23.10
2022-09-12T10:33:53.787Z,23.03
2022-09-12T10:36:21.001Z,5.70
2022-09-12T10:39:01.010Z,6.97
2022-09-12T10:41:39.727Z,5.30
2022-09-12T10:44:19.052Z,10.60
2022-09-12T10:46:45.887Z,5.37
2022-09-12T10:49:14.667Z,5.13
2022-09-12T10:51:41.347Z,5.30
2022-09-12T10:54:11.253Z,5.90
2022-09-12T10:57:01.302Z,11.43
2022-09-12T10:59:31.215Z,20.07
2022-09-12T11:02:27.370Z,10.90
2022-09-12T11:05:08.841Z,42.10
2022-09-12T11:07:57.349Z,11.23
2022-09-12T11:10:59.403Z,3.27
2022-09-12T11:14:00.877Z,3.50
2022-09-12T11:16:44.151Z,2.60
2022-09-12T11:19:32.381Z,3.20
2022-09-12T11:22:02.138Z,3.23
2022-09-12T11:25:13.666Z,3.73
2022-09-12T11:27:58.399Z,3.83
2022-09-12T11:30:25.434Z,2.37
2022-09-12T11:33:10.654Z,11.17
2022-09-12T11:35:54.419Z,2.70
2022-09-12T11:38:49.538Z,2.40
2022-09-12T11:41:31.378Z,3.50
2022-09-12T11:44:18.981Z,5.07
2022-09-12T11:46:49.910Z,2.67
2022-09-12T11:49:35.588Z,2.57
2022-09-12T11:52:17.061Z,4.13
2022-09-12T11:55:17.189Z,3.00
2022-09-12T11:57:59.971Z,2.77
2022-09-12T12:00:41.178Z,2.10
2022-09-12T12:03:16.862Z,3.20
2022-09-12T12:05:57.814Z,2.43
2022-09-12T12:08:26.292Z,2.80
2022-09-12T12:11:00.729Z,2.80
2022-09-12T12:13:39.642Z,11.00
2022-09-12T12:16:29.809Z,2.53
2022-09-12T12:19:10.822Z,3.13
2022-09-12T12:21:49.794Z,6.20
2022-09-12T12:24:19.216Z,2.90
2022-09-12T12:26:59.842Z,2.43
2022-09-12T12:29:35.092Z,21.93
2022-09-12T12:32:04.670Z,2.50
2022-09-12T12:34:32.674Z,8.43
2022-09-12T12:37:19.411Z,5.07
2022-09-12T12:39:47.851Z,2.43
2022-09-12T12:42:33.296Z,4.20
2022-09-12T12:45:08.895Z,4.10
2022-09-12T12:47:38.545Z,2.60
2022-09-12T12:50:12.180Z,3.10
2022-09-12T12:53:06.933Z,3.70
2022-09-12T12:55:42.914Z,3.80
2022-09-12T12:58:31.325Z,7.20
2022-09-12T13:01:16.532Z,3.33
2022-09-12T13:04:04.619Z,2.03
2022-09-12T13:06:31.469Z,3.03
2022-09-12T13:09:19.161Z,2.80
2022-09-12T13:11:46.746Z,3.07
2022-09-12T13:14:37.491Z,3.10
2022-09-12T13:17:14.351Z,3.00
2022-09-12T13:19:41.579Z,2.75
2022-09-12T13:22:09.948Z,2.72
2022-09-12T13:24:54.499Z,2.90
2022-09-12T13:27:25.862Z,2.63
2022-09-12T13:30:15.421Z,3.08
2022-09-12T13:32:43.494Z,2.78
2022-09-12T13:35:38.525Z,2.22
2022-09-12T13:38:33.059Z,3.20
2022-09-12T13:41:25.209Z,2.67
2022-09-12T13:43:52.224Z,2.50
2022-09-12T13:46:30.384Z,2.10
2022-09-12T13:49:01.064Z,1.90
2022-09-12T13:51:31.104Z,2.60
2022-09-12T13:54:02.797Z,2.08
2022-09-12T13:56:29.897Z,2.83
2022-09-12T13:58:59.169Z,3.15
2022-09-12T14:01:39.303Z,2.80
2022-09-12T14:04:38.843Z,4.07
2022-09-12T14:07:20.338Z,3.35
2022-09-12T14:09:55.045Z,4.65
2022-09-12T14:12:30.260Z,2.55
2022-09-12T14:14:57.405Z,2.63
2022-09-12T14:17:24.189Z,9.77
2022-09-12T14:19:52.814Z,4.27
2022-09-12T14:22:19.647Z,3.20
2022-09-12T14:24:51.591Z,2.77
2022-09-12T14:27:28.771Z,4.97
2022-09-12T14:30:08.941Z,2.73
2022-09-12T14:32:36.407Z,2.53
2022-09-12T14:35:12.162Z,5.33
2022-09-12T14:37:39.577Z,2.53
2022-09-12T14:40:21.733Z,3.10
2022-09-12T14:42:50.765Z,3.07
2022-09-12T14:45:23.258Z,10.00
2022-09-12T14:47:52.839Z,2.60
2022-09-12T14:50:26.540Z,4.83
2022-09-12T14:53:11.157Z,2.40
2022-09-12T14:55:46.552Z,2.77
2022-09-12T14:58:26.180Z,2.50
2022-09-12T15:01:00.262Z,3.87
2022-09-12T15:03:35.107Z,3.57
2022-09-12T15:06:04.198Z,3.00
2022-09-12T15:08:32.108Z,3.10
2022-09-12T15:10:59.717Z,3.70
2022-09-12T15:13:28.568Z,4.13
2022-09-12T15:15:57.982Z,3.43
2022-09-12T15:18:29.236Z,2.70
2022-09-12T15:21:05.482Z,2.77
2022-09-12T15:23:41.627Z,2.53
2022-09-12T15:26:12.941Z,3.33
2022-09-12T15:28:39.866Z,2.70
2022-09-12T15:31:16.202Z,3.37
2022-09-12T15:33:42.958Z,2.60
2022-09-12T15:36:16.449Z,9.33
2022-09-12T15:38:44.006Z,3.17
2022-09-12T15:41:14.722Z,2.40
2022-09-12T15:43:41.581Z,3.30
2022-09-12T15:46:11.806Z,2.67
2022-09-12T15:48:39.104Z,2.83
2022-09-12T15:51:15.085Z,2.60
2022-09-12T15:53:42.626Z,2.90
2022-09-12T15:56:09.522Z,2.60
2022-09-12T15:58:36.601Z,2.63
2022-09-12T16:01:04.252Z,2.40
2022-09-12T16:03:31.045Z,2.33
2022-09-12T16:06:02.156Z,2.00
2022-09-12T16:08:31.470Z,2.07
2022-09-12T16:11:02.537Z,4.13
2022-09-12T16:13:29.525Z,2.60
2022-09-12T16:16:01.244Z,2.40
2022-09-12T16:18:29.225Z,2.37
2022-09-12T16:20:57.227Z,2.07
2022-09-12T16:23:24.945Z,2.30
2022-09-12T16:26:03.156Z,1.93
2022-09-12T16:28:30.863Z,2.17
2022-09-12T16:31:03.889Z,4.27
2022-09-12T16:33:31.598Z,2.50
2022-09-12T16:36:04.018Z,2.20
2022-09-12T16:38:32.333Z,2.13
2022-09-12T16:41:06.073Z,2.20
2022-09-12T16:43:34.311Z,2.87
2022-09-12T16:46:06.927Z,2.50
2022-09-12T16:48:34.263Z,2.87
2022-09-12T16:51:03.663Z,3.00
2022-09-12T16:53:34.914Z,2.40
2022-09-12T16:56:01.904Z,2.63
2022-09-12T16:58:31.845Z,2.73
2022-09-12T17:01:10.273Z,2.47
2022-09-12T17:03:37.311Z,4.17
2022-09-12T17:06:09.786Z,2.90
2022-09-12T17:08:41.390Z,3.07
2022-09-12T17:11:14.056Z,3.53
2022-09-12T17:14:03.144Z,2.77
2022-09-12T17:16:28.999Z,2.60
2022-09-12T17:18:56.020Z,3.20
2022-09-12T17:21:25.638Z,3.00
2022-09-12T17:23:52.547Z,3.07
2022-09-12T17:26:19.713Z,2.80
2022-09-12T17:28:47.059Z,2.87
2022-09-12T17:31:14.877Z,2.60
2022-09-12T17:33:42.304Z,4.13
2022-09-12T17:36:16.327Z,3.03
2022-09-12T17:38:45.440Z,3.23
2022-09-12T17:41:15.967Z,2.77
2022-09-12T17:43:50.845Z,2.90
2022-09-12T17:46:21.337Z,3.67
2022-09-12T17:48:56.451Z,3.30
2022-09-12T17:51:25.355Z,2.43
2022-09-12T17:54:08.231Z,4.37
2022-09-12T17:56:37.044Z,2.90
2022-09-12T17:59:06.682Z,7.97
2022-09-12T18:01:52.567Z,5.50
2022-09-12T18:04:20.041Z,13.63
2022-09-12T18:06:50.122Z,2.80
2022-09-12T18:09:19.684Z,2.80
2022-09-12T18:11:48.067Z,9.33
2022-09-12T18:14:17.140Z,3.40
2022-09-12T18:16:45.138Z,4.13
2022-09-12T18:19:12.208Z,5.00
2022-09-12T18:21:39.190Z,13.20
2022-09-12T18:24:06.374Z,8.63
2022-09-12T18:26:33.953Z,8.93
2022-09-12T18:29:00.718Z,3.13
2022-09-12T18:31:29.630Z,3.80
2022-09-12T18:33:59.707Z,7.17
2022-09-12T18:36:26.579Z,3.00
2022-09-12T18:38:53.304Z,3.10
2022-09-12T18:41:22.556Z,3.83
2022-09-12T18:43:53.358Z,3.97
2022-09-12T18:46:20.189Z,2.93
2022-09-12T18:48:47.255Z,3.43
2022-09-12T18:51:19.884Z,2.40
2022-09-12T18:53:56.046Z,3.67
2022-09-12T18:56:24.534Z,3.60
2022-09-12T18:58:53.402Z,3.80
2022-09-12T19:01:23.957Z,3.20
2022-09-12T19:03:50.998Z,3.63
2022-09-12T19:06:23.465Z,2.93
2022-09-12T19:08:52.769Z,2.93
2022-09-12T19:11:20.863Z,3.40
2022-09-12T19:13:50.609Z,3.40
2022-09-12T19:16:20.216Z,3.90
2022-09-12T19:18:49.558Z,4.10
2022-09-12T19:21:31.045Z,3.20
2022-09-12T19:24:06.904Z,2.90
2022-09-12T19:26:34.325Z,3.70
2022-09-12T19:29:02.846Z,3.13
2022-09-12T19:31:30.464Z,3.60
2022-09-12T19:34:06.111Z,3.50
2022-09-12T19:36:45.339Z,3.37
2022-09-12T19:39:14.099Z,3.03
2022-09-12T19:41:40.810Z,3.57
2022-09-12T19:44:07.657Z,3.00
2022-09-12T19:46:34.517Z,2.80
2022-09-12T19:49:01.350Z,3.10
2022-09-12T19:51:28.436Z,3.30
2022-09-12T19:53:55.342Z,3.00
2022-09-12T19:56:22.483Z,3.57
2022-09-12T19:58:55.762Z,2.83
2022-09-12T20:01:25.723Z,4.13
2022-09-12T20:03:55.369Z,2.07
2022-09-12T20:06:22.543Z,7.63
2022-09-12T20:08:49.915Z,2.57
2022-09-12T20:11:19.882Z,3.27
2022-09-12T20:13:47.654Z,25.63
2022-09-12T20:16:24.239Z,5.93
2022-09-12T20:18:56.173Z,2.53
2022-09-12T20:21:25.714Z,8.17
2022-09-12T20:23:52.611Z,5.17
2022-09-12T20:26:20.481Z,88.13
2022-09-12T20:28:47.621Z,2.60
2022-09-12T20:31:16.101Z,3.63
2022-09-12T20:33:43.981Z,6.37
2022-09-12T20:36:12.910Z,3.10
2022-09-12T20:38:40.274Z,3.03
2022-09-12T20:41:09.886Z,6.77
2022-09-12T20:43:38.691Z,2.37
2022-09-12T20:46:12.631Z,3.60
2022-09-12T20:48:39.890Z,3.97
2022-09-12T20:51:07.548Z,2.77
2022-09-12T20:53:35.510Z,2.73
2022-09-12T20:56:03.441Z,3.27
2022-09-12T20:58:30.400Z,3.67
2022-09-12T21:00:57.516Z,4.67
2022-09-12T21:03:25.492Z,3.30
2022-09-12T21:05:52.610Z,3.40
2022-09-12T21:08:19.340Z,3.40
2022-09-12T21:10:46.083Z,3.20
2022-09-12T21:13:13.793Z,2.60
2022-09-12T21:15:41.663Z,3.23
2022-09-12T21:18:08.532Z,2.70
2022-09-12T21:20:35.349Z,10.83
2022-09-12T21:23:02.327Z,3.20
2022-09-12T21:25:29.921Z,4.37
2022-09-12T21:27:56.824Z,7.50
2022-09-12T21:30:23.829Z,10.90
2022-09-12T21:32:50.727Z,3.10
2022-09-12T21:35:18.016Z,3.03
2022-09-12T21:37:44.821Z,4.07
2022-09-12T21:40:11.667Z,3.30
2022-09-12T21:42:38.382Z,3.00
2022-09-12T21:45:06.247Z,3.17
2022-09-12T21:47:33.057Z,11.60
2022-09-12T21:49:59.782Z,2.60
2022-09-12T21:52:27.595Z,3.40
2022-09-12T21:54:54.331Z,2.63
2022-09-12T21:57:21.407Z,4.80
2022-09-12T21:59:48.107Z,2.83
2022-09-12T22:02:15.940Z,2.80
2022-09-12T22:04:42.956Z,3.47
2022-09-12T22:07:09.817Z,3.17
2022-09-12T22:09:36.536Z,10.90
2022-09-12T22:12:03.393Z,3.00
2022-09-12T22:14:30.085Z,3.30
2022-09-12T22:16:56.949Z,3.87
2022-09-12T22:19:23.801Z,2.53
2022-09-12T22:22:09.351Z,3.30
2022-09-12T22:24:36.178Z,10.83
2022-09-12T22:27:05.435Z,2.77
2022-09-12T22:29:32.825Z,3.00
2022-09-12T22:32:00.202Z,3.10
2022-09-12T22:34:28.473Z,3.07
2022-09-12T22:36:55.589Z,4.50
2022-09-12T22:39:23.002Z,2.87
2022-09-12T22:41:50.141Z,3.13
2022-09-12T22:44:17.754Z,4.20
2022-09-12T22:46:45.038Z,2.77
2022-09-12T22:49:11.861Z,3.60
2022-09-12T22:51:39.029Z,2.93
2022-09-12T22:54:06.891Z,2.90
2022-09-12T22:56:33.823Z,3.40
2022-09-12T22:59:01.026Z,2.40
2022-09-12T23:01:27.853Z,2.77
2022-09-12T23:03:54.582Z,3.67
2022-09-12T23:06:21.299Z,2.90
2022-09-12T23:08:48.053Z,3.10
2022-09-12T23:11:17.015Z,3.00
2022-09-12T23:13:46.133Z,3.73
2022-09-12T23:16:18.640Z,3.23
2022-09-12T23:18:45.544Z,3.50
2022-09-12T23:21:13.302Z,3.30
2022-09-12T23:23:39.972Z,3.63
2022-09-12T23:26:11.252Z,3.37
2022-09-12T23:28:39.490Z,3.60
2022-09-12T23:31:08.619Z,5.93
2022-09-12T23:33:36.270Z,3.47
2022-09-12T23:36:06.365Z,2.93
2022-09-12T23:38:36.222Z,2.90
2022-09-12T23:41:04.086Z,4.57
2022-09-12T23:43:31.384Z,3.10
2022-09-12T23:45:58.919Z,3.30
2022-09-12T23:48:26.364Z,2.83
2022-09-12T23:50:53.674Z,3.97
2022-09-12T23:53:21.599Z,3.30
2022-09-12T23:55:49.005Z,3.10
2022-09-12T23:58:16.766Z,2.70
